Time;durP1;ratioP1;P1;durP2;ratioP2;P2;SDS_P1;SDS_P2;PMS_P1;PMS_P2;Temp;Humidity;BMP_temperature;BMP_pressure;BME280_temperature;BME280_humidity;BME280_pressure;Samples;Min_cycle;Max_cycle;Signal;HPM_P1;HPM_P2
2022/03/31 00:00:28;;;;;;;3.35;1.10;;;2.80;99.90;;;;;;5104467;28;20366;-67
2022/03/31 00:02:57;;;;;;;3.05;0.93;;;2.80;99.90;;;;;;5099662;27;20035;-67
2022/03/31 00:05:23;;;;;;;3.40;1.55;;;2.80;99.90;;;;;;5101168;28;20050;-67
2022/03/31 00:07:51;;;;;;;2.97;1.42;;;2.90;99.90;;;;;;5097375;27;20096;-67
2022/03/31 00:10:24;;;;;;;1.58;1.10;;;2.90;99.90;;;;;;5101807;27;20096;-67
2022/03/31 00:12:51;;;;;;;3.58;1.30;;;2.90;99.90;;;;;;5101354;27;20107;-67
2022/03/31 00:15:17;;;;;;;3.80;1.48;;;3.00;99.90;;;;;;5103288;28;20114;-67
2022/03/31 00:17:43;;;;;;;5.50;1.27;;;2.90;99.90;;;;;;5083580;28;20062;-66
2022/03/31 00:33:38;;;;;;;4.05;1.27;;;3.10;99.90;;;;;;5112317;27;20142;-66
2022/03/31 00:36:04;;;;;;;4.43;1.27;;;3.10;99.90;;;;;;5115845;27;21856;-66
2022/03/31 00:38:29;;;;;;;3.45;1.33;;;3.10;99.90;;;;;;5107756;27;20042;-66
2022/03/31 00:40:55;;;;;;;5.32;0.95;;;3.20;99.90;;;;;;5110893;27;20561;-67
2022/03/31 00:43:21;;;;;;;5.80;2.03;;;3.20;99.90;;;;;;5115917;27;20096;-67
2022/03/31 00:45:47;;;;;;;4.05;1.30;;;3.20;99.90;;;;;;5114340;27;20471;-67
2022/03/31 00:48:14;;;;;;;4.15;1.35;;;3.20;99.90;;;;;;5100856;27;20156;-67
2022/03/31 00:50:40;;;;;;;4.30;1.70;;;3.30;99.90;;;;;;5106374;27;20027;-67
2022/03/31 00:53:06;;;;;;;5.47;1.85;;;3.20;99.90;;;;;;5112487;27;20083;-67
2022/03/31 00:55:32;;;;;;;3.20;1.30;;;3.20;99.90;;;;;;5104117;27;22543;-68
2022/03/31 00:57:58;;;;;;;2.72;1.25;;;3.20;99.90;;;;;;5102997;27;20377;-67
2022/03/31 01:00:24;;;;;;;4.10;1.50;;;3.20;99.90;;;;;;5092041;28;20476;-67
2022/03/31 01:02:50;;;;;;;4.80;2.00;;;3.20;99.90;;;;;;5112837;27;20035;-66
2022/03/31 01:05:16;;;;;;;9.98;3.72;;;3.20;99.90;;;;;;5091090;27;20043;-67
2022/03/31 01:07:42;;;;;;;7.78;4.13;;;3.20;99.90;;;;;;5114072;27;20077;-67
2022/03/31 01:10:09;;;;;;;9.38;4.93;;;3.10;99.90;;;;;;5110465;27;20071;-67
2022/03/31 01:12:36;;;;;;;7.30;4.10;;;3.20;99.90;;;;;;5116622;27;20038;-67
2022/03/31 01:15:07;;;;;;;9.73;3.30;;;3.20;99.90;;;;;;5108652;27;20072;-67
2022/03/31 01:17:34;;;;;;;5.80;2.53;;;3.20;99.90;;;;;;5102506;27;20058;-66
2022/03/31 01:20:01;;;;;;;5.93;2.35;;;3.20;99.90;;;;;;5109336;27;20078;-67
2022/03/31 01:22:30;;;;;;;5.80;1.88;;;3.20;99.90;;;;;;5108549;27;20162;-66
2022/03/31 01:24:57;;;;;;;4.82;2.45;;;3.10;99.90;;;;;;5114574;27;20509;-66
2022/03/31 01:27:23;;;;;;;5.57;2.03;;;3.20;99.90;;;;;;5089667;27;20080;-67
2022/03/31 01:29:49;;;;;;;8.82;2.75;;;3.10;99.90;;;;;;5109199;28;20063;-67
2022/03/31 01:32:15;;;;;;;5.28;2.40;;;3.10;99.90;;;;;;5098130;27;20839;-67
2022/03/31 01:34:40;;;;;;;6.13;2.65;;;3.10;99.90;;;;;;5112753;27;20513;-67
2022/03/31 01:37:07;;;;;;;4.40;2.42;;;3.10;99.90;;;;;;5111216;27;20027;-67
2022/03/31 01:39:32;;;;;;;4.25;2.00;;;3.10;99.90;;;;;;5084147;28;20451;-67
2022/03/31 01:41:58;;;;;;;6.80;2.58;;;3.10;99.90;;;;;;5109686;27;20076;-67
2022/03/31 01:44:24;;;;;;;5.53;2.35;;;3.10;99.90;;;;;;5092083;28;20047;-67
2022/03/31 01:46:50;;;;;;;6.55;2.88;;;3.10;99.90;;;;;;5111097;27;22842;-67
2022/03/31 01:49:15;;;;;;;6.25;2.63;;;3.20;99.90;;;;;;5100953;27;20027;-67
2022/03/31 01:51:41;;;;;;;5.85;2.40;;;3.10;99.90;;;;;;5130734;27;20469;-66
2022/03/31 01:54:06;;;;;;;5.63;2.92;;;3.10;99.90;;;;;;5086584;27;20067;-67
2022/03/31 01:56:34;;;;;;;9.82;3.10;;;3.10;99.90;;;;;;5092463;27;20046;-66
2022/03/31 01:58:59;;;;;;;5.85;3.17;;;3.20;99.90;;;;;;5112863;27;20234;-67
2022/03/31 02:01:25;;;;;;;9.75;3.42;;;3.10;99.90;;;;;;5082755;28;20134;-67
2022/03/31 02:03:51;;;;;;;6.40;3.35;;;3.00;99.90;;;;;;5091871;27;20046;-67
2022/03/31 02:06:16;;;;;;;5.63;3.03;;;3.10;99.90;;;;;;5103680;28;20036;-67
2022/03/31 02:08:42;;;;;;;9.85;4.10;;;3.10;99.90;;;;;;5094146;27;20073;-67
2022/03/31 02:11:08;;;;;;;8.00;4.43;;;3.10;99.90;;;;;;5111233;27;20041;-68
2022/03/31 02:13:34;;;;;;;11.07;5.45;;;3.00;99.90;;;;;;5107791;27;20046;-67
2022/03/31 02:16:00;;;;;;;14.80;6.85;;;3.00;99.90;;;;;;5102005;27;20039;-67
2022/03/31 02:18:25;;;;;;;8.65;5.25;;;3.00;99.90;;;;;;5111298;27;20039;-67
2022/03/31 02:20:51;;;;;;;11.00;5.38;;;3.10;99.90;;;;;;5104420;27;20120;-68
2022/03/31 02:23:17;;;;;;;12.50;6.03;;;3.10;99.90;;;;;;5101554;27;20051;-67
2022/03/31 02:25:43;;;;;;;10.82;5.63;;;3.10;99.90;;;;;;5106832;27;20035;-67
2022/03/31 02:28:09;;;;;;;10.82;5.57;;;3.10;99.90;;;;;;5104496;27;20039;-67
2022/03/31 02:30:35;;;;;;;12.18;5.18;;;3.00;99.90;;;;;;5111496;27;20493;-67
2022/03/31 02:33:02;;;;;;;13.40;6.25;;;3.00;99.90;;;;;;5100445;27;20118;-67
2022/03/31 02:35:29;;;;;;;12.98;5.90;;;3.10;99.90;;;;;;5100480;27;20122;-67
2022/03/31 02:37:54;;;;;;;12.43;5.65;;;3.10;99.90;;;;;;5110076;27;20039;-67
2022/03/31 02:40:20;;;;;;;11.68;5.85;;;3.10;99.90;;;;;;5095203;27;20131;-67
2022/03/31 02:42:46;;;;;;;11.50;6.13;;;3.10;99.90;;;;;;5109995;27;20062;-67
2022/03/31 02:45:12;;;;;;;11.75;6.60;;;3.10;99.90;;;;;;5096358;27;20046;-67
2022/03/31 02:47:37;;;;;;;14.30;6.97;;;3.10;99.90;;;;;;5102422;28;20081;-67
2022/03/31 02:50:04;;;;;;;15.80;7.32;;;3.10;99.90;;;;;;5093622;27;20043;-68
2022/03/31 02:55:24;;;;;;;12.45;7.40;;;3.20;99.90;;;;;;5099210;27;20043;-67
2022/03/31 02:55:24;;;;;;;15.95;8.23;;;3.10;99.90;;;;;;5099931;27;20536;-67
2022/03/31 02:57:51;;;;;;;13.68;7.88;;;3.20;99.90;;;;;;5104363;27;20035;-67
2022/03/31 03:00:17;;;;;;;12.68;7.53;;;3.20;99.90;;;;;;5098882;27;20038;-68
2022/03/31 03:02:42;;;;;;;11.77;7.88;;;3.20;99.90;;;;;;5094953;27;20042;-67
2022/03/31 03:05:08;;;;;;;11.75;7.68;;;3.20;99.90;;;;;;5108011;27;21778;-68
2022/03/31 03:07:34;;;;;;;11.98;7.88;;;3.20;99.90;;;;;;5104946;27;20081;-67
2022/03/31 03:09:59;;;;;;;12.43;7.50;;;3.20;99.90;;;;;;5111698;27;20027;-67
2022/03/31 03:12:25;;;;;;;14.90;8.82;;;3.20;99.90;;;;;;5105149;27;20062;-67
2022/03/31 03:14:51;;;;;;;14.15;8.05;;;3.20;99.90;;;;;;5091095;27;20070;-67
2022/03/31 03:17:17;;;;;;;12.27;7.88;;;3.20;99.90;;;;;;5100976;27;20055;-67
2022/03/31 03:19:43;;;;;;;13.73;8.80;;;3.20;99.90;;;;;;5092675;28;20487;-67
2022/03/31 03:22:09;;;;;;;12.07;8.13;;;3.20;99.90;;;;;;5102557;27;20093;-68
2022/03/31 03:24:34;;;;;;;14.90;9.07;;;3.20;99.90;;;;;;5106764;27;20043;-68
2022/03/31 03:27:00;;;;;;;13.95;8.88;;;3.20;99.90;;;;;;5118986;27;20031;-67
2022/03/31 03:29:26;;;;;;;13.98;9.35;;;3.10;99.90;;;;;;5107015;27;20122;-68
2022/03/31 03:31:52;;;;;;;17.52;9.43;;;3.20;99.90;;;;;;5100628;27;20047;-67
2022/03/31 03:34:18;;;;;;;14.85;9.02;;;3.10;99.90;;;;;;5087042;27;20059;-68
2022/03/31 03:36:43;;;;;;;14.43;9.50;;;3.10;99.90;;;;;;5095763;28;20092;-67
2022/03/31 03:39:11;;;;;;;13.63;8.68;;;3.10;99.90;;;;;;5106127;27;20043;-67
2022/03/31 03:41:37;;;;;;;14.45;9.30;;;3.00;99.90;;;;;;5109946;27;20123;-67
2022/03/31 03:44:03;;;;;;;16.20;9.68;;;3.00;99.90;;;;;;5093163;27;20038;-67
2022/03/31 03:46:29;;;;;;;15.38;9.57;;;3.00;99.90;;;;;;5101676;27;20043;-67
2022/03/31 03:48:55;;;;;;;18.55;9.73;;;3.00;99.90;;;;;;5105682;27;20062;-67
2022/03/31 03:51:23;;;;;;;16.85;9.82;;;3.00;99.90;;;;;;5094674;27;20455;-67
2022/03/31 03:53:48;;;;;;;17.50;10.15;;;3.00;99.90;;;;;;5105701;27;20055;-67
2022/03/31 03:56:19;;;;;;;15.82;9.20;;;3.00;99.90;;;;;;5086194;27;20156;-67
2022/03/31 03:58:44;;;;;;;;;;;3.00;99.90;;;;;;5093068;28;20131;-67
2022/03/31 04:01:10;;;;;;;17.33;9.65;;;3.00;99.90;;;;;;5103445;27;19985;-69
2022/03/31 04:03:36;;;;;;;13.85;8.98;;;3.10;99.90;;;;;;5107207;27;20035;-67
2022/03/31 04:06:01;;;;;;;12.73;7.95;;;3.10;99.90;;;;;;5107879;27;20168;-68
2022/03/31 04:08:27;;;;;;;13.00;7.07;;;3.10;99.90;;;;;;5104800;28;20046;-68
2022/03/31 04:10:53;;;;;;;14.52;7.65;;;3.00;99.90;;;;;;5110785;27;20373;-68
2022/03/31 04:13:19;;;;;;;9.50;6.53;;;3.10;99.90;;;;;;5098197;27;20513;-67
2022/03/31 04:15:44;;;;;;;11.07;6.22;;;3.10;99.90;;;;;;5104309;27;20394;-67
2022/03/31 04:18:10;;;;;;;10.15;6.68;;;3.10;99.90;;;;;;5100953;28;20039;-68
2022/03/31 04:20:36;;;;;;;9.73;6.30;;;3.10;99.90;;;;;;5107777;27;20121;-67
2022/03/31 04:23:02;;;;;;;10.75;6.28;;;3.10;99.90;;;;;;5088712;27;20062;-67
2022/03/31 04:25:29;;;;;;;9.88;6.20;;;3.10;99.90;;;;;;5085876;28;20164;-67
2022/03/31 04:27:54;;;;;;;9.10;6.28;;;3.00;99.90;;;;;;5101158;28;20403;-67
2022/03/31 04:30:21;;;;;;;10.60;7.05;;;3.00;99.90;;;;;;5092675;28;20035;-67
2022/03/31 04:32:48;;;;;;;9.52;6.22;;;3.00;99.90;;;;;;5090561;28;20366;-66
2022/03/31 04:35:14;;;;;;;9.90;6.55;;;3.00;99.90;;;;;;5088057;28;20043;-67
2022/03/31 04:37:40;;;;;;;10.07;6.45;;;3.00;99.90;;;;;;5101436;28;20082;-67
2022/03/31 04:40:07;;;;;;;9.32;6.60;;;3.00;99.90;;;;;;5105678;28;20857;-67
2022/03/31 04:42:34;;;;;;;11.98;6.97;;;2.90;99.90;;;;;;5098028;28;20149;-67
2022/03/31 04:45:01;;;;;;;11.00;6.75;;;2.90;99.90;;;;;;5097043;28;20039;-66
2022/03/31 04:47:26;;;;;;;11.85;7.45;;;2.90;99.90;;;;;;5096975;28;20027;-67
2022/03/31 04:49:52;;;;;;;10.50;6.50;;;2.80;99.90;;;;;;5105353;28;20031;-67
2022/03/31 04:52:17;;;;;;;13.68;8.10;;;2.90;99.90;;;;;;5103748;28;20131;-67
2022/03/31 04:54:46;;;;;;;11.70;7.70;;;2.90;99.90;;;;;;5095748;28;20079;-67
2022/03/31 04:57:15;;;;;;;12.32;7.18;;;2.90;99.90;;;;;;5098404;28;20135;-69
2022/03/31 04:59:41;;;;;;;11.52;7.32;;;2.90;99.90;;;;;;5106291;28;20344;-66
2022/03/31 05:02:07;;;;;;;10.98;6.70;;;3.00;99.90;;;;;;5102395;28;20043;-67
2022/03/31 05:04:33;;;;;;;14.18;7.20;;;3.00;99.90;;;;;;5094259;28;20044;-66
2022/03/31 05:06:59;;;;;;;11.90;7.63;;;3.00;99.90;;;;;;5087667;28;20092;-67
2022/03/31 05:09:24;;;;;;;11.55;7.22;;;3.00;99.90;;;;;;5080662;28;20065;-66
2022/03/31 05:11:50;;;;;;;11.57;7.97;;;2.90;99.90;;;;;;5092344;28;20051;-66
2022/03/31 05:14:15;;;;;;;11.13;7.20;;;2.90;99.90;;;;;;5102705;28;20066;-66
2022/03/31 05:16:41;;;;;;;11.55;7.10;;;3.00;99.90;;;;;;5101365;27;20054;-66
2022/03/31 05:19:06;;;;;;;12.50;7.68;;;2.90;99.90;;;;;;5099624;27;20032;-66
2022/03/31 05:21:32;;;;;;;12.40;7.65;;;2.90;99.90;;;;;;5105249;27;20043;-66
2022/03/31 05:23:58;;;;;;;12.38;7.78;;;2.90;99.90;;;;;;5087956;27;20059;-65
2022/03/31 05:26:23;;;;;;;12.07;7.85;;;2.80;99.90;;;;;;5103624;28;20368;-65
2022/03/31 05:28:49;;;;;;;11.30;7.88;;;2.80;99.90;;;;;;5126594;27;20049;-66
2022/03/31 05:31:14;;;;;;;11.43;7.60;;;2.80;99.90;;;;;;5085958;27;20363;-66
2022/03/31 05:33:40;;;;;;;13.43;8.13;;;2.80;99.90;;;;;;5105735;27;20323;-66
2022/03/31 05:36:06;;;;;;;13.13;8.23;;;2.80;99.90;;;;;;5093950;27;20031;-66
2022/03/31 05:38:32;;;;;;;14.23;8.48;;;2.80;99.90;;;;;;5103083;27;20335;-67
2022/03/31 05:40:57;;;;;;;12.38;8.13;;;2.80;99.90;;;;;;5129122;27;20118;-67
2022/03/31 05:43:23;;;;;;;12.13;8.00;;;2.80;99.90;;;;;;5108059;27;20148;-67
2022/03/31 05:45:50;;;;;;;12.43;7.93;;;2.80;99.90;;;;;;5109487;27;20047;-66
2022/03/31 05:48:15;;;;;;;12.88;8.43;;;2.80;99.90;;;;;;5111208;27;20744;-67
2022/03/31 05:50:41;;;;;;;13.15;8.77;;;2.80;99.90;;;;;;5109827;27;20042;-66
2022/03/31 05:53:06;;;;;;;14.40;8.73;;;2.80;99.90;;;;;;5113729;27;20463;-66
2022/03/31 05:55:32;;;;;;;10.77;7.72;;;2.80;99.90;;;;;;5109207;27;20043;-66
2022/03/31 05:57:58;;;;;;;14.27;8.20;;;2.80;99.90;;;;;;5113277;27;20044;-66
2022/03/31 06:00:24;;;;;;;14.57;8.98;;;2.80;99.90;;;;;;5095335;28;20123;-66
2022/03/31 06:02:52;;;;;;;14.90;9.27;;;2.80;99.90;;;;;;5098955;27;20038;-66
2022/03/31 06:05:19;;;;;;;12.68;7.70;;;2.90;99.90;;;;;;5106282;27;20039;-66
2022/03/31 06:07:45;;;;;;;11.38;7.72;;;2.80;99.90;;;;;;5124760;27;20115;-66
2022/03/31 06:10:11;;;;;;;11.90;7.30;;;2.90;99.90;;;;;;5098728;27;20035;-65
2022/03/31 06:12:37;;;;;;;10.50;7.38;;;2.80;99.90;;;;;;5099317;27;20495;-66
2022/03/31 06:15:05;;;;;;;9.85;6.90;;;2.80;99.90;;;;;;5113569;27;20118;-66
2022/03/31 06:17:30;;;;;;;10.27;7.20;;;2.80;99.90;;;;;;5102941;27;20424;-66
2022/03/31 06:19:56;;;;;;;12.32;8.05;;;2.80;99.90;;;;;;5086849;27;20042;-65
2022/03/31 06:22:21;;;;;;;11.02;7.70;;;2.90;99.90;;;;;;5096561;27;20047;-66
2022/03/31 06:24:48;;;;;;;11.48;7.70;;;2.80;99.90;;;;;;5111947;27;20395;-66
2022/03/31 06:27:13;;;;;;;12.13;7.50;;;2.80;99.90;;;;;;5113414;27;20035;-66
2022/03/31 06:29:42;;;;;;;10.90;7.55;;;2.90;99.90;;;;;;5100235;27;20051;-65
2022/03/31 06:32:08;;;;;;;10.52;7.38;;;2.90;99.90;;;;;;5106259;27;20165;-66
2022/03/31 06:34:36;;;;;;;12.65;8.10;;;2.80;99.90;;;;;;5109572;27;20028;-66
2022/03/31 06:37:01;;;;;;;10.88;7.55;;;2.90;99.90;;;;;;5113582;27;20088;-65
2022/03/31 06:39:27;;;;;;;11.60;7.88;;;2.90;99.90;;;;;;5104858;27;20414;-66
2022/03/31 06:41:53;;;;;;;10.93;7.75;;;2.90;99.90;;;;;;5102490;27;20057;-66
2022/03/31 06:44:21;;;;;;;11.48;8.15;;;2.90;99.90;;;;;;5102762;28;20054;-66
2022/03/31 06:46:46;;;;;;;15.75;9.70;;;2.80;99.90;;;;;;5095181;27;20062;-66
2022/03/31 06:49:12;;;;;;;12.00;8.02;;;2.90;99.90;;;;;;5105568;27;20078;-65
2022/03/31 06:51:38;;;;;;;14.07;8.70;;;2.90;99.90;;;;;;5081721;28;20100;-66
2022/03/31 06:54:04;;;;;;;12.80;8.68;;;2.90;99.90;;;;;;5091565;28;20032;-66
2022/03/31 06:56:31;;;;;;;12.38;8.90;;;2.90;99.90;;;;;;5092309;28;20036;-65
2022/03/31 06:58:58;;;;;;;15.85;9.88;;;2.90;99.90;;;;;;5105970;27;20112;-66
2022/03/31 07:01:25;;;;;;;15.73;10.25;;;2.90;99.90;;;;;;5112545;27;20054;-66
2022/03/31 07:03:51;;;;;;;15.32;9.38;;;2.90;99.90;;;;;;5113403;27;20078;-66
2022/03/31 07:06:18;;;;;;;15.13;8.93;;;2.80;99.90;;;;;;5113584;27;20440;-67
2022/03/31 07:08:43;;;;;;;18.15;11.18;;;2.80;99.90;;;;;;5083998;28;20165;-66
2022/03/31 07:11:10;;;;;;;15.35;10.02;;;2.70;99.90;;;;;;5093027;28;20126;-66
2022/03/31 07:13:36;;;;;;;17.85;10.98;;;2.70;99.90;;;;;;5111270;27;20036;-65
2022/03/31 07:16:02;;;;;;;19.13;11.65;;;2.70;99.90;;;;;;5099719;28;20180;-65
2022/03/31 07:18:27;;;;;;;19.20;11.95;;;2.80;99.90;;;;;;5092425;28;20127;-66
2022/03/31 07:20:53;;;;;;;21.40;11.80;;;2.80;99.90;;;;;;5096088;27;20046;-66
2022/03/31 07:23:23;;;;;;;21.13;12.07;;;2.90;99.90;;;;;;5105928;28;20514;-66
2022/03/31 07:25:49;;;;;;;18.73;12.23;;;2.90;99.90;;;;;;5092403;28;20568;-66
2022/03/31 07:28:15;;;;;;;20.25;12.27;;;2.90;99.90;;;;;;5092288;28;20344;-65
2022/03/31 07:30:41;;;;;;;21.15;12.55;;;2.90;99.90;;;;;;5094607;28;20032;-65
2022/03/31 07:33:08;;;;;;;21.75;12.88;;;2.80;99.90;;;;;;5105135;27;20127;-65
2022/03/31 07:35:37;;;;;;;21.23;12.65;;;2.90;99.90;;;;;;5111373;27;20050;-64
2022/03/31 07:38:04;;;;;;;17.92;11.68;;;2.90;99.90;;;;;;5106949;28;20415;-64
2022/03/31 07:40:31;;;;;;;19.73;11.85;;;2.90;99.90;;;;;;5084897;27;20043;-64
2022/03/31 07:42:57;;;;;;;19.13;10.43;;;3.00;99.90;;;;;;5098614;28;20066;-65
2022/03/31 07:45:23;;;;;;;19.50;12.10;;;3.00;99.90;;;;;;5107221;27;20043;-64
2022/03/31 07:47:49;;;;;;;16.67;9.80;;;3.00;99.90;;;;;;5111463;27;20039;-65
2022/03/31 07:50:17;;;;;;;15.68;9.93;;;2.80;99.90;;;;;;5108355;27;20050;-65
2022/03/31 07:52:44;;;;;;;16.10;10.48;;;2.90;99.90;;;;;;5091255;27;20559;-65
2022/03/31 07:55:11;;;;;;;17.40;10.15;;;2.70;99.90;;;;;;5112034;27;20601;-65
2022/03/31 07:57:38;;;;;;;17.15;10.73;;;2.80;99.90;;;;;;5097259;28;20035;-65
2022/03/31 08:00:09;;;;;;;17.52;11.00;;;2.80;99.90;;;;;;5092215;28;20079;-65
2022/03/31 08:02:35;;;;;;;17.23;11.15;;;2.90;99.90;;;;;;5092492;28;20058;-65
2022/03/31 08:05:00;;;;;;;15.80;10.07;;;2.80;99.90;;;;;;5091950;28;20040;-66
2022/03/31 08:07:26;;;;;;;14.07;9.00;;;2.80;99.90;;;;;;5075677;27;20027;-65
2022/03/31 08:09:51;;;;;;;16.20;9.60;;;2.80;99.90;;;;;;5111189;27;20123;-65
2022/03/31 08:12:17;;;;;;;15.57;9.25;;;2.80;99.90;;;;;;5095148;28;20050;-65
2022/03/31 08:14:43;;;;;;;17.55;9.88;;;2.80;99.90;;;;;;5094187;28;20083;-65
2022/03/31 08:17:09;;;;;;;15.07;10.07;;;2.80;99.90;;;;;;5107453;28;20044;-64
2022/03/31 08:19:35;;;;;;;18.25;10.02;;;2.90;99.90;;;;;;5096543;28;20344;-64
2022/03/31 08:22:01;;;;;;;16.40;9.75;;;2.90;99.90;;;;;;5091761;28;20047;-64
2022/03/31 08:24:28;;;;;;;13.38;9.25;;;2.90;99.90;;;;;;5080953;28;20110;-65
2022/03/31 08:26:54;;;;;;;12.60;8.30;;;3.00;99.90;;;;;;5106549;28;20050;-65
2022/03/31 08:29:19;;;;;;;15.73;8.77;;;2.90;99.90;;;;;;5098819;28;20046;-65
2022/03/31 08:31:45;;;;;;;13.55;8.88;;;3.00;99.90;;;;;;5092450;28;20123;-64
2022/03/31 08:34:11;;;;;;;16.40;9.18;;;3.00;99.90;;;;;;5091491;28;20040;-65
2022/03/31 08:36:36;;;;;;;15.02;8.95;;;2.90;99.90;;;;;;5100815;28;20393;-64
2022/03/31 08:39:06;;;;;;;13.65;8.60;;;2.90;99.90;;;;;;5122346;28;20321;-65
2022/03/31 08:41:32;;;;;;;13.85;8.13;;;2.90;99.90;;;;;;5091430;28;20135;-65
2022/03/31 08:43:58;;;;;;;12.05;7.80;;;2.90;99.90;;;;;;5092048;28;20126;-65
2022/03/31 08:46:30;;;;;;;12.40;7.10;;;2.90;99.90;;;;;;5093293;28;20032;-65
2022/03/31 08:48:57;;;;;;;11.73;6.97;;;2.90;99.90;;;;;;5094642;27;20042;-64
2022/03/31 08:51:23;;;;;;;9.82;5.70;;;2.90;99.90;;;;;;5095181;28;20062;-65
2022/03/31 08:53:48;;;;;;;9.65;5.82;;;2.90;99.90;;;;;;5123480;27;20620;-64
2022/03/31 08:56:15;;;;;;;9.40;6.05;;;2.90;99.90;;;;;;5105269;27;20096;-64
2022/03/31 08:58:44;;;;;;;7.90;5.32;;;2.90;99.90;;;;;;5117102;27;20080;-65
2022/03/31 09:01:12;;;;;;;8.18;5.00;;;2.90;99.90;;;;;;5115337;27;20514;-65
2022/03/31 09:03:39;;;;;;;10.18;5.43;;;2.70;99.90;;;;;;5115100;27;20039;-65
2022/03/31 09:06:07;;;;;;;9.07;5.57;;;2.70;99.90;;;;;;5111224;27;20031;-64
2022/03/31 09:08:34;;;;;;;8.23;5.50;;;2.60;99.90;;;;;;5114595;27;20428;-64
2022/03/31 09:11:00;;;;;;;7.63;4.90;;;2.60;99.90;;;;;;5096660;28;20047;-66
2022/03/31 09:13:36;;;;;;;6.53;4.60;;;2.60;99.90;;;;;;5095600;28;20180;-64
2022/03/31 09:16:10;;;;;;;6.30;4.40;;;2.60;99.90;;;;;;5096946;28;20043;-65
2022/03/31 09:18:37;;;;;;;6.82;4.25;;;2.60;99.90;;;;;;5078246;28;20085;-65
2022/03/31 09:21:06;;;;;;;6.80;4.50;;;2.60;99.90;;;;;;5104300;27;20034;-65
2022/03/31 09:23:46;;;;;;;6.27;4.67;;;2.60;99.90;;;;;;5103935;28;20078;-65
2022/03/31 09:26:14;;;;;;;6.22;4.13;;;2.60;99.90;;;;;;5095174;28;20359;-65
2022/03/31 09:28:43;;;;;;;5.75;4.07;;;2.70;99.90;;;;;;5101718;28;20118;-65
2022/03/31 09:31:10;;;;;;;6.30;3.70;;;2.70;99.90;;;;;;5104327;28;20115;-65
2022/03/31 09:33:45;;;;;;;6.00;4.20;;;2.70;99.90;;;;;;5106411;28;20486;-65
2022/03/31 09:36:16;;;;;;;5.95;4.18;;;2.70;99.90;;;;;;5086091;28;20048;-66
2022/03/31 09:38:51;;;;;;;6.22;4.15;;;2.60;99.90;;;;;;5090876;28;20040;-66
2022/03/31 09:41:17;;;;;;;5.05;3.83;;;2.40;99.90;;;;;;5078509;28;20039;-65
2022/03/31 09:43:43;;;;;;;6.00;4.10;;;2.40;99.90;;;;;;5094910;28;20446;-64
2022/03/31 09:46:36;;;;;;;6.25;4.10;;;2.40;99.90;;;;;;5098490;28;20101;-64
2022/03/31 09:49:14;;;;;;;5.97;4.13;;;2.20;99.90;;;;;;5092470;28;20028;-65
2022/03/31 09:51:45;;;;;;;7.03;4.30;;;2.10;99.90;;;;;;5074388;28;20054;-64
2022/03/31 09:54:11;;;;;;;8.00;4.85;;;2.10;99.90;;;;;;5092250;28;20031;-66
2022/03/31 09:56:39;;;;;;;7.60;4.82;;;2.10;99.90;;;;;;5101095;28;20053;-66
2022/03/31 09:59:07;;;;;;;7.50;5.03;;;1.90;99.90;;;;;;5108086;28;20036;-65
2022/03/31 10:01:33;;;;;;;7.68;4.97;;;1.80;99.90;;;;;;5106571;28;20054;-66
2022/03/31 10:03:59;;;;;;;8.70;5.00;;;1.70;99.90;;;;;;5108504;28;20380;-65
2022/03/31 10:06:26;;;;;;;8.25;5.18;;;1.70;99.90;;;;;;5087058;28;20039;-66
2022/03/31 10:08:53;;;;;;;8.52;5.20;;;1.60;99.90;;;;;;5075588;28;20650;-66
2022/03/31 10:11:20;;;;;;;7.43;5.05;;;1.70;99.90;;;;;;5102679;27;20657;-66
2022/03/31 10:13:56;;;;;;;8.32;5.80;;;1.70;99.90;;;;;;5106889;28;20103;-66
2022/03/31 10:16:36;;;;;;;8.18;5.10;;;1.70;99.90;;;;;;5108138;28;20059;-66
2022/03/31 10:19:03;;;;;;;9.05;5.40;;;1.60;99.90;;;;;;5108949;28;20131;-67
2022/03/31 10:21:30;;;;;;;8.50;5.13;;;1.60;99.90;;;;;;5109099;28;20100;-67
2022/03/31 10:26:40;;;;;;;7.68;5.10;;;1.50;99.90;;;;;;5103905;28;20043;-69
2022/03/31 10:29:16;;;;;;;7.72;4.72;;;1.50;99.90;;;;;;5089098;28;20040;-71
2022/03/31 10:31:45;;;;;;;7.28;5.07;;;1.50;99.90;;;;;;5092901;28;20115;-72
2022/03/31 10:34:14;;;;;;;7.20;4.65;;;1.50;99.90;;;;;;5090649;28;20065;-71
2022/03/31 10:36:49;;;;;;;6.90;4.18;;;1.40;99.90;;;;;;5087606;28;20162;-71
2022/03/31 10:39:23;;;;;;;7.72;4.93;;;1.40;99.90;;;;;;5102264;28;20078;-72
2022/03/31 10:42:03;;;;;;;6.78;4.95;;;1.40;99.90;;;;;;5101680;28;20039;-72
2022/03/31 10:44:28;;;;;;;7.57;5.15;;;1.40;99.90;;;;;;5101826;28;20050;-72
2022/03/31 10:47:02;;;;;;;8.35;5.00;;;1.40;99.90;;;;;;5103644;28;20035;-73
2022/03/31 10:49:29;;;;;;;7.18;4.78;;;1.30;99.90;;;;;;5096235;28;20089;-73
2022/03/31 10:51:54;;;;;;;7.30;4.68;;;1.30;99.90;;;;;;5102410;28;20052;-73
2022/03/31 10:54:33;;;;;;;7.68;5.03;;;1.10;99.90;;;;;;5100219;28;20118;-76
2022/03/31 10:57:08;;;;;;;7.35;4.53;;;1.20;99.90;;;;;;5128081;27;20039;-76
2022/03/31 10:59:35;;;;;;;7.30;4.65;;;1.20;99.90;;;;;;5094248;28;20131;-77
2022/03/31 11:02:15;;;;;;;8.05;5.32;;;1.10;99.90;;;;;;5097577;28;20473;-78
2022/03/31 11:04:48;;;;;;;7.35;4.90;;;1.10;99.90;;;;;;5096118;28;20468;-83
2022/03/31 11:07:15;;;;;;;8.73;4.90;;;1.10;99.90;;;;;;5100756;28;20191;-80
2022/03/31 11:09:42;;;;;;;8.43;5.30;;;1.00;99.90;;;;;;5109530;28;20044;-80
2022/03/31 11:12:08;;;;;;;7.38;4.82;;;1.10;99.90;;;;;;5090851;28;20130;-82
2022/03/31 11:14:34;;;;;;;8.90;5.28;;;1.00;99.90;;;;;;5101549;28;20182;-81
2022/03/31 11:17:00;;;;;;;7.97;5.15;;;1.10;99.90;;;;;;5080306;28;20490;-81
2022/03/31 11:19:36;;;;;;;8.27;5.50;;;1.00;99.90;;;;;;5098646;28;20358;-79
2022/03/31 11:22:01;;;;;;;7.18;5.03;;;1.00;99.90;;;;;;5081246;28;20425;-80
2022/03/31 11:24:27;;;;;;;8.40;5.43;;;1.00;99.90;;;;;;5103840;28;20048;-77
2022/03/31 11:26:54;;;;;;;9.48;5.85;;;1.10;99.90;;;;;;5105708;28;20556;-77
2022/03/31 11:29:24;;;;;;;9.75;6.07;;;1.10;99.90;;;;;;5121083;27;20055;-75
2022/03/31 11:31:51;;;;;;;9.35;5.90;;;1.20;99.90;;;;;;5105834;28;20051;-75
2022/03/31 11:34:19;;;;;;;9.18;5.80;;;1.30;99.90;;;;;;5090880;28;20083;-74
2022/03/31 11:36:44;;;;;;;9.32;5.53;;;1.20;99.90;;;;;;5106714;28;20043;-73
2022/03/31 11:39:10;;;;;;;8.60;5.35;;;1.20;99.90;;;;;;5100491;28;20035;-73
2022/03/31 11:41:38;;;;;;;8.68;5.55;;;1.30;99.90;;;;;;5095967;28;20193;-72
2022/03/31 11:44:04;;;;;;;9.65;6.28;;;1.30;99.90;;;;;;5104848;28;20043;-73
2022/03/31 11:46:40;;;;;;;9.85;5.82;;;1.30;99.90;;;;;;5105359;28;20342;-71
2022/03/31 11:49:14;;;;;;;9.38;5.80;;;1.30;99.90;;;;;;5102435;28;20385;-72
2022/03/31 11:51:40;;;;;;;9.55;5.88;;;1.40;99.90;;;;;;5096481;28;20032;-73
2022/03/31 11:54:09;;;;;;;9.90;5.97;;;1.30;99.90;;;;;;5097244;28;20383;-73
2022/03/31 11:56:34;;;;;;;8.52;5.70;;;1.30;99.90;;;;;;5096436;28;20081;-73
2022/03/31 11:59:00;;;;;;;10.00;6.28;;;1.30;99.90;;;;;;5107370;28;20451;-73
2022/03/31 12:01:37;;;;;;;10.90;6.85;;;1.30;99.90;;;;;;5104997;28;20039;-74
2022/03/31 12:04:03;;;;;;;11.95;6.82;;;1.30;99.90;;;;;;5096097;28;20044;-74
2022/03/31 12:06:32;;;;;;;11.43;6.47;;;1.40;99.90;;;;;;5084456;28;20117;-75
2022/03/31 12:08:58;;;;;;;11.90;7.72;;;1.30;99.90;;;;;;5101601;28;20060;-75
2022/03/31 12:11:25;;;;;;;12.85;7.03;;;1.30;99.90;;;;;;5108036;28;20040;-73
2022/03/31 12:13:53;;;;;;;12.98;7.82;;;1.30;99.90;;;;;;5088022;28;20107;-75
2022/03/31 12:16:20;;;;;;;13.70;7.78;;;1.30;99.90;;;;;;5094738;28;20059;-76
2022/03/31 12:18:55;;;;;;;13.48;8.23;;;1.40;99.90;;;;;;5084682;28;20047;-75
2022/03/31 12:21:21;;;;;;;13.63;8.05;;;1.40;99.90;;;;;;5083780;28;20043;-76
2022/03/31 12:23:47;;;;;;;13.95;8.90;;;1.40;99.90;;;;;;5085903;28;20044;-76
2022/03/31 12:26:19;;;;;;;16.17;9.40;;;1.40;99.90;;;;;;5098238;28;20054;-76
2022/03/31 12:28:46;;;;;;;15.38;9.40;;;1.40;99.90;;;;;;5084506;28;20039;-76
2022/03/31 12:31:27;;;;;;;18.95;10.82;;;1.50;99.90;;;;;;5082715;28;20028;-76
2022/03/31 12:33:53;;;;;;;;;;;1.50;99.90;;;;;;5103868;28;20036;-74
2022/03/31 12:36:25;;;;;;;19.92;10.82;;;1.60;99.90;;;;;;5076503;28;20012;-74
2022/03/31 12:38:54;;;;;;;23.50;11.55;;;1.60;99.90;;;;;;5117529;28;20381;-73
2022/03/31 12:41:35;;;;;;;25.17;12.98;;;1.60;99.90;;;;;;5087600;28;20043;-75
2022/03/31 12:44:06;;;;;;;28.27;15.73;;;1.70;99.90;;;;;;5103525;28;20087;-73
2022/03/31 12:46:56;;;;;;;29.48;15.48;;;1.70;99.90;;;;;;5081316;28;20036;-71
2022/03/31 12:49:33;;;;;;;23.23;13.05;;;1.80;99.90;;;;;;5076699;28;20143;-71
2022/03/31 12:52:02;;;;;;;33.13;15.70;;;1.90;99.90;;;;;;5089394;28;20097;-72
2022/03/31 12:54:33;;;;;;;28.63;15.68;;;1.90;99.90;;;;;;5100282;28;20040;-70
2022/03/31 12:56:59;;;;;;;;;;;1.90;99.90;;;;;;5104512;28;20034;-70
2022/03/31 12:59:30;;;;;;;26.13;14.10;;;1.90;99.90;;;;;;5108305;28;19922;-68
2022/03/31 13:02:10;;;;;;;22.95;14.05;;;1.90;99.90;;;;;;5090360;28;20372;-69
2022/03/31 13:04:40;;;;;;;;;;;1.90;99.90;;;;;;5095381;28;20055;-73
2022/03/31 13:07:17;;;;;;;24.42;13.30;;;1.90;99.90;;;;;;5103538;28;19916;-69